createdAt,value
2023-09-15T00:01:45.900Z,16.60
2023-09-15T00:04:13.328Z,16.57
2023-09-15T00:06:40.790Z,16.54
2023-09-15T00:09:16.392Z,16.49
2023-09-15T00:11:43.669Z,16.46
2023-09-15T00:14:12.154Z,16.41
2023-09-15T00:16:40.942Z,16.36
2023-09-15T00:19:09.201Z,16.33
2023-09-15T00:21:35.739Z,16.30
2023-09-15T00:24:02.962Z,16.26
2023-09-15T00:26:33.461Z,16.22
2023-09-15T00:29:03.779Z,16.18
2023-09-15T00:31:30.468Z,16.17
2023-09-15T00:33:56.956Z,16.14
2023-09-15T00:36:23.595Z,16.11
2023-09-15T00:38:50.440Z,16.08
2023-09-15T00:41:16.993Z,16.05
2023-09-15T00:43:43.398Z,16.04
2023-09-15T00:46:12.238Z,16.00
2023-09-15T00:48:40.876Z,15.99
2023-09-15T00:51:08.884Z,15.98
2023-09-15T00:53:40.055Z,15.97
2023-09-15T00:56:09.243Z,15.98
2023-09-15T00:58:39.953Z,15.98
2023-09-15T01:01:07.715Z,15.99
2023-09-15T01:03:39.202Z,15.98
2023-09-15T01:06:07.322Z,15.99
2023-09-15T01:08:35.545Z,15.99
2023-09-15T01:11:05.483Z,16.00
2023-09-15T01:13:34.039Z,15.99
2023-09-15T01:16:15.715Z,15.96
2023-09-15T01:18:59.234Z,15.96
2023-09-15T01:21:41.920Z,15.97
2023-09-15T01:24:30.600Z,15.95
2023-09-15T01:27:07.397Z,15.97
2023-09-15T01:29:54.957Z,15.94
2023-09-15T01:32:23.253Z,15.97
2023-09-15T01:34:52.668Z,15.94
2023-09-15T01:37:20.768Z,15.92
2023-09-15T01:39:47.803Z,15.90
2023-09-15T01:42:14.349Z,15.89
2023-09-15T01:44:40.789Z,15.89
2023-09-15T01:47:10.083Z,15.87
2023-09-15T01:49:38.961Z,15.87
2023-09-15T01:52:06.085Z,15.88
2023-09-15T01:54:32.597Z,15.89
2023-09-15T01:56:59.339Z,15.90
2023-09-15T01:59:25.899Z,15.90
2023-09-15T02:01:52.511Z,15.91
2023-09-15T02:04:19.129Z,15.92
2023-09-15T02:06:45.612Z,15.92
2023-09-15T02:09:15.620Z,15.90
2023-09-15T02:11:42.075Z,15.93
2023-09-15T02:14:08.484Z,15.94
2023-09-15T02:16:35.012Z,15.94
2023-09-15T02:19:01.816Z,15.95
2023-09-15T02:21:28.281Z,15.96
2023-09-15T02:23:54.725Z,15.97
2023-09-15T02:26:22.376Z,15.97
2023-09-15T02:28:49.103Z,15.98
2023-09-15T02:31:15.872Z,15.97
2023-09-15T02:33:42.407Z,15.98
2023-09-15T02:36:09.010Z,15.97
2023-09-15T02:38:35.877Z,15.96
2023-09-15T02:41:02.347Z,15.96
2023-09-15T02:43:28.793Z,15.96
2023-09-15T02:45:55.398Z,15.95
2023-09-15T02:48:22.289Z,15.93
2023-09-15T02:50:49.256Z,15.94
2023-09-15T02:53:15.773Z,15.94
2023-09-15T02:55:42.224Z,15.93
2023-09-15T02:58:08.786Z,15.94
2023-09-15T03:00:35.254Z,15.93
2023-09-15T03:03:04.998Z,15.93
2023-09-15T03:05:31.698Z,15.93
2023-09-15T03:07:58.175Z,15.92
2023-09-15T03:10:24.622Z,15.90
2023-09-15T03:12:52.713Z,15.90
2023-09-15T03:15:19.405Z,15.89
2023-09-15T03:17:45.954Z,15.88
2023-09-15T03:20:16.895Z,15.87
2023-09-15T03:22:44.333Z,15.87
2023-09-15T03:25:11.638Z,15.86
2023-09-15T03:27:38.117Z,15.86
2023-09-15T03:30:05.735Z,15.85
2023-09-15T03:32:32.693Z,15.83
2023-09-15T03:34:59.376Z,15.83
2023-09-15T03:37:26.987Z,15.82
2023-09-15T03:39:53.735Z,15.81
2023-09-15T03:42:20.237Z,15.81
2023-09-15T03:44:46.982Z,15.80
2023-09-15T03:47:13.588Z,15.79
2023-09-15T03:49:40.062Z,15.77
2023-09-15T03:52:06.769Z,15.77
2023-09-15T03:54:33.424Z,15.77
2023-09-15T03:56:59.868Z,15.75
2023-09-15T03:59:26.310Z,15.74
2023-09-15T04:01:52.948Z,15.74
2023-09-15T04:04:19.505Z,15.72
2023-09-15T04:06:46.012Z,15.70
2023-09-15T04:09:13.553Z,15.68
2023-09-15T04:11:40.847Z,15.66
2023-09-15T04:14:08.163Z,15.62
2023-09-15T04:16:36.763Z,15.60
2023-09-15T04:19:03.894Z,15.57
2023-09-15T04:21:30.560Z,15.53
2023-09-15T04:23:57.009Z,15.49
2023-09-15T04:26:23.442Z,15.45
2023-09-15T04:28:49.982Z,15.38
2023-09-15T04:31:16.507Z,15.33
2023-09-15T04:33:43.043Z,15.29
2023-09-15T04:36:09.489Z,15.26
2023-09-15T04:38:35.963Z,15.22
2023-09-15T04:41:02.421Z,15.19
2023-09-15T04:43:31.042Z,15.16
2023-09-15T04:45:58.339Z,15.13
2023-09-15T04:48:24.872Z,15.10
2023-09-15T04:50:51.398Z,15.07
2023-09-15T04:53:18.000Z,15.04
2023-09-15T04:55:44.530Z,15.02
2023-09-15T05:06:49.756Z,14.93
2023-09-15T05:09:21.472Z,14.90
2023-09-15T05:11:48.226Z,14.86
2023-09-15T05:14:15.013Z,14.82
2023-09-15T05:16:41.550Z,14.79
2023-09-15T05:19:08.080Z,14.75
2023-09-15T05:21:34.620Z,14.73
2023-09-15T05:24:01.069Z,14.72
2023-09-15T05:26:27.598Z,14.72
2023-09-15T05:28:54.138Z,14.72
2023-09-15T05:31:25.056Z,14.74
2023-09-15T05:33:51.655Z,14.76
2023-09-15T05:36:18.219Z,14.78
2023-09-15T05:38:45.078Z,14.78
2023-09-15T05:41:11.833Z,14.80
2023-09-15T05:43:38.285Z,14.81
2023-09-15T05:46:04.859Z,14.84
2023-09-15T05:48:31.346Z,14.85
2023-09-15T05:50:57.950Z,14.87
2023-09-15T05:53:24.475Z,14.89
2023-09-15T05:55:51.059Z,14.91
2023-09-15T05:58:17.578Z,14.91
2023-09-15T06:00:44.306Z,14.92
2023-09-15T06:03:10.894Z,14.93
2023-09-15T06:05:37.515Z,14.94
2023-09-15T06:08:09.259Z,14.95
2023-09-15T06:10:41.196Z,14.95
2023-09-15T06:13:08.133Z,14.98
2023-09-15T06:15:36.053Z,15.01
2023-09-15T06:18:03.190Z,15.04
2023-09-15T06:20:32.277Z,15.07
2023-09-15T06:22:58.928Z,15.11
2023-09-15T06:25:25.401Z,15.14
2023-09-15T06:27:52.009Z,15.17
2023-09-15T06:30:18.581Z,15.22
2023-09-15T06:32:45.118Z,15.24
2023-09-15T06:35:14.105Z,15.28
2023-09-15T06:37:41.671Z,15.32
2023-09-15T06:40:08.876Z,15.36
2023-09-15T06:42:35.746Z,15.39
2023-09-15T06:45:02.277Z,15.43
2023-09-15T06:47:28.901Z,15.46
2023-09-15T06:49:55.726Z,15.50
2023-09-15T06:52:22.411Z,15.56
2023-09-15T06:54:49.037Z,15.60
2023-09-15T06:57:15.594Z,15.66
2023-09-15T06:59:42.135Z,15.71
2023-09-15T07:02:08.611Z,15.77
2023-09-15T07:04:39.633Z,15.83
2023-09-15T07:07:06.393Z,15.87
2023-09-15T07:09:33.120Z,15.92
2023-09-15T07:11:59.572Z,15.97
2023-09-15T07:14:26.385Z,16.02
2023-09-15T07:16:52.994Z,16.07
2023-09-15T07:19:19.855Z,16.14
2023-09-15T07:21:46.380Z,16.21
2023-09-15T07:24:12.966Z,16.27
2023-09-15T07:26:39.716Z,16.34
2023-09-15T07:29:06.392Z,16.44
2023-09-15T07:31:36.300Z,16.48
2023-09-15T07:34:04.561Z,16.57
2023-09-15T07:36:31.608Z,16.63
2023-09-15T07:38:58.172Z,16.70
2023-09-15T07:41:25.723Z,16.76
2023-09-15T07:43:54.790Z,16.83
2023-09-15T07:46:21.739Z,16.89
2023-09-15T07:48:48.268Z,16.95
2023-09-15T07:51:16.807Z,17.00
2023-09-15T07:53:43.749Z,17.06
2023-09-15T07:56:10.356Z,17.13
2023-09-15T07:58:37.424Z,17.19
2023-09-15T08:01:05.114Z,17.25
2023-09-15T08:03:31.571Z,17.30
2023-09-15T08:05:59.859Z,17.36
2023-09-15T08:08:27.572Z,17.42
2023-09-15T08:10:54.051Z,17.47
2023-09-15T08:13:20.529Z,17.53
2023-09-15T08:15:47.175Z,17.57
2023-09-15T08:18:13.703Z,17.62
2023-09-15T08:20:40.293Z,17.66
2023-09-15T08:23:06.747Z,17.72
2023-09-15T08:25:33.322Z,17.77
2023-09-15T08:28:00.771Z,17.82
2023-09-15T08:30:27.450Z,17.87
2023-09-15T08:32:54.050Z,17.92
2023-09-15T08:35:20.818Z,17.98
2023-09-15T08:37:47.369Z,18.04
2023-09-15T08:40:13.936Z,18.09
2023-09-15T08:42:40.750Z,18.16
2023-09-15T08:45:08.282Z,18.22
2023-09-15T08:47:39.227Z,18.27
2023-09-15T08:50:06.526Z,18.35
2023-09-15T08:52:34.532Z,18.40
2023-09-15T08:55:03.079Z,18.47
2023-09-15T08:57:35.003Z,18.52
2023-09-15T09:00:01.941Z,18.61
2023-09-15T09:02:29.509Z,18.66
2023-09-15T09:04:56.017Z,18.72
2023-09-15T09:07:23.206Z,18.80
2023-09-15T09:09:51.075Z,18.86
2023-09-15T09:12:21.879Z,18.93
2023-09-15T09:14:50.689Z,19.01
2023-09-15T09:17:19.794Z,19.08
2023-09-15T09:19:48.235Z,19.16
2023-09-15T09:22:20.665Z,19.23
2023-09-15T09:24:57.519Z,19.30
2023-09-15T09:27:34.217Z,19.39
2023-09-15T09:30:01.038Z,19.51
2023-09-15T09:32:27.735Z,19.58
2023-09-15T09:34:54.815Z,19.65
2023-09-15T09:37:27.216Z,19.73
2023-09-15T09:39:54.793Z,19.83
2023-09-15T09:42:24.860Z,19.90
2023-09-15T09:44:53.545Z,20.00
2023-09-15T09:47:22.821Z,20.10
2023-09-15T09:49:52.690Z,20.18
2023-09-15T09:52:19.237Z,20.30
2023-09-15T09:54:50.585Z,20.38
2023-09-15T09:57:18.006Z,20.51
2023-09-15T09:59:45.461Z,20.62
2023-09-15T10:02:12.648Z,20.74
2023-09-15T10:04:39.198Z,20.86
2023-09-15T10:07:05.986Z,20.98
2023-09-15T10:09:33.075Z,21.09
2023-09-15T10:12:00.392Z,21.24
2023-09-15T10:14:27.293Z,21.38
2023-09-15T10:16:54.244Z,21.52
2023-09-15T10:19:21.555Z,21.68
2023-09-15T10:21:48.393Z,21.85
2023-09-15T10:24:16.773Z,22.00
2023-09-15T10:26:43.448Z,22.18
2023-09-15T10:29:16.582Z,22.32
2023-09-15T10:31:47.625Z,22.46
2023-09-15T10:34:16.074Z,22.61
2023-09-15T10:36:45.680Z,22.72
2023-09-15T10:39:16.154Z,22.81
2023-09-15T10:41:44.518Z,22.91
2023-09-15T10:44:11.869Z,23.04
2023-09-15T10:46:40.824Z,23.16
2023-09-15T10:49:18.269Z,23.28
2023-09-15T10:52:04.144Z,23.42
2023-09-15T10:54:36.157Z,23.60
2023-09-15T10:57:03.656Z,23.76
2023-09-15T10:59:30.301Z,23.92
2023-09-15T11:01:57.231Z,24.11
2023-09-15T11:04:23.953Z,24.35
2023-09-15T11:06:52.771Z,24.70
2023-09-15T11:09:20.283Z,25.14
2023-09-15T11:11:51.284Z,25.72
2023-09-15T11:14:23.008Z,26.44
2023-09-15T11:16:51.718Z,27.19
2023-09-15T11:19:19.591Z,27.96
2023-09-15T11:21:47.182Z,28.71
2023-09-15T11:24:14.488Z,29.41
2023-09-15T11:26:53.358Z,30.12
2023-09-15T11:29:27.527Z,30.77
2023-09-15T11:31:55.313Z,31.38
2023-09-15T11:34:22.175Z,31.92
2023-09-15T11:36:50.355Z,32.44
2023-09-15T11:39:17.438Z,32.90
2023-09-15T11:41:54.721Z,33.29
2023-09-15T11:44:23.003Z,33.69
2023-09-15T11:46:53.979Z,34.01
2023-09-15T11:49:20.788Z,34.36
2023-09-15T11:51:47.861Z,34.67
2023-09-15T11:54:14.391Z,34.98
2023-09-15T11:56:41.032Z,35.25
2023-09-15T11:59:08.160Z,35.52
2023-09-15T12:01:35.766Z,35.77
2023-09-15T12:04:02.879Z,35.98
2023-09-15T12:06:29.697Z,36.18
2023-09-15T12:08:56.320Z,36.39
2023-09-15T12:11:24.132Z,36.61
2023-09-15T12:13:53.682Z,36.81
2023-09-15T12:16:26.323Z,36.99
2023-09-15T12:18:53.060Z,37.14
2023-09-15T12:21:25.857Z,37.28
2023-09-15T12:23:55.461Z,37.45
2023-09-15T12:26:23.199Z,37.62
2023-09-15T12:28:50.160Z,37.80
2023-09-15T12:31:21.965Z,37.93
2023-09-15T12:33:57.513Z,38.00
2023-09-15T12:36:24.203Z,38.13
2023-09-15T12:38:53.413Z,38.19
2023-09-15T12:41:19.938Z,38.28
2023-09-15T12:43:46.946Z,38.37
2023-09-15T12:46:13.804Z,38.48
2023-09-15T12:48:40.530Z,38.58
2023-09-15T12:51:07.081Z,38.67
2023-09-15T12:53:33.637Z,38.75
2023-09-15T12:56:01.475Z,38.82
2023-09-15T12:58:28.124Z,38.89
2023-09-15T13:00:54.669Z,38.93
2023-09-15T13:03:23.436Z,39.01
2023-09-15T13:05:50.565Z,39.10
2023-09-15T13:08:17.064Z,39.22
2023-09-15T13:10:43.591Z,39.35
2023-09-15T13:13:10.182Z,39.49
2023-09-15T13:15:37.389Z,39.59
2023-09-15T13:18:04.447Z,39.68
2023-09-15T13:20:31.011Z,39.77
2023-09-15T13:22:57.613Z,39.88
2023-09-15T13:25:24.165Z,39.98
2023-09-15T13:27:50.620Z,40.08
2023-09-15T13:30:17.167Z,40.16
2023-09-15T13:32:46.281Z,40.23
2023-09-15T13:35:14.314Z,40.30
2023-09-15T13:37:41.111Z,40.35
2023-09-15T13:40:07.901Z,40.44
2023-09-15T13:42:37.152Z,40.50
2023-09-15T13:45:05.281Z,40.58
2023-09-15T13:47:33.776Z,40.69
2023-09-15T13:50:01.525Z,40.83
2023-09-15T13:52:31.637Z,40.96
2023-09-15T13:54:59.356Z,41.11
2023-09-15T13:57:29.002Z,41.26
2023-09-15T13:59:56.883Z,41.41
2023-09-15T14:02:25.045Z,41.54
2023-09-15T14:04:52.064Z,41.65
2023-09-15T14:07:18.789Z,41.75
2023-09-15T14:09:45.319Z,41.83
2023-09-15T14:12:13.006Z,41.91
2023-09-15T14:14:40.319Z,41.97
2023-09-15T14:17:08.991Z,42.02
2023-09-15T14:19:35.835Z,42.02
2023-09-15T14:22:03.479Z,41.99
2023-09-15T14:24:33.977Z,41.96
2023-09-15T14:27:02.158Z,41.93
2023-09-15T14:29:29.078Z,41.93
2023-09-15T14:31:56.320Z,41.96
2023-09-15T14:34:22.864Z,41.97
2023-09-15T14:36:49.417Z,41.97
2023-09-15T14:39:17.151Z,41.95
2023-09-15T14:41:44.100Z,41.93
2023-09-15T14:44:21.903Z,41.87
2023-09-15T14:46:48.766Z,41.89
2023-09-15T14:49:15.708Z,41.87
2023-09-15T14:51:43.005Z,41.85
2023-09-15T14:54:10.289Z,41.81
2023-09-15T14:56:37.511Z,41.77
2023-09-15T14:59:04.540Z,41.73
2023-09-15T15:01:31.227Z,41.71
2023-09-15T15:03:57.840Z,41.68
2023-09-15T15:06:24.517Z,41.65
2023-09-15T15:08:51.259Z,41.60
2023-09-15T15:11:18.166Z,41.49
2023-09-15T15:13:52.285Z,41.31
2023-09-15T15:16:19.086Z,41.11
2023-09-15T15:18:46.535Z,40.95
2023-09-15T15:21:13.646Z,40.81
2023-09-15T15:23:40.213Z,40.71
2023-09-15T15:26:08.360Z,40.62
2023-09-15T15:28:36.253Z,40.47
2023-09-15T15:31:03.026Z,40.30
2023-09-15T15:33:29.813Z,40.03
2023-09-15T15:36:04.085Z,39.62
2023-09-15T15:38:30.680Z,39.19
2023-09-15T15:41:05.001Z,38.49
2023-09-15T15:43:33.468Z,37.85
2023-09-15T15:46:02.263Z,37.09
2023-09-15T15:48:30.148Z,36.35
2023-09-15T15:50:57.009Z,35.67
2023-09-15T15:53:23.562Z,35.04
2023-09-15T15:55:50.599Z,34.46
2023-09-15T15:58:17.795Z,33.93
2023-09-15T16:00:45.648Z,33.43
2023-09-15T16:03:12.441Z,32.98
2023-09-15T16:05:41.709Z,32.55
2023-09-15T16:08:08.768Z,32.17
2023-09-15T16:10:35.723Z,31.83
2023-09-15T16:13:02.724Z,31.51
2023-09-15T16:15:29.456Z,31.25
2023-09-15T16:17:56.983Z,30.99
2023-09-15T16:20:23.611Z,30.75
2023-09-15T16:22:50.204Z,30.52
2023-09-15T16:25:17.440Z,30.33
2023-09-15T16:27:43.988Z,30.14
2023-09-15T16:30:10.911Z,29.97
2023-09-15T16:32:37.996Z,29.80
2023-09-15T16:35:05.104Z,29.65
2023-09-15T16:37:31.616Z,29.54
2023-09-15T16:39:58.951Z,29.41
2023-09-15T16:42:25.671Z,29.33
2023-09-15T16:44:52.301Z,29.22
2023-09-15T16:47:20.651Z,29.09
2023-09-15T16:49:47.391Z,28.95
2023-09-15T16:52:13.963Z,28.79
2023-09-15T16:54:40.606Z,28.64
2023-09-15T16:57:07.214Z,28.49
2023-09-15T16:59:36.136Z,28.32
2023-09-15T17:02:04.698Z,28.17
2023-09-15T17:04:51.001Z,28.00
2023-09-15T17:07:21.038Z,27.81
2023-09-15T17:09:47.583Z,27.68
2023-09-15T17:12:14.263Z,27.55
2023-09-15T17:14:40.874Z,27.41
2023-09-15T17:17:07.327Z,27.29
2023-09-15T17:19:34.444Z,27.17
2023-09-15T17:22:01.051Z,27.05
2023-09-15T17:24:27.582Z,26.93
2023-09-15T17:26:54.110Z,26.81
2023-09-15T17:29:20.838Z,26.69
2023-09-15T17:31:47.502Z,26.57
2023-09-15T17:34:15.724Z,26.45
2023-09-15T17:36:43.189Z,26.33
2023-09-15T17:39:11.246Z,26.22
2023-09-15T17:41:37.787Z,26.11
2023-09-15T17:44:04.311Z,25.99
2023-09-15T17:46:30.955Z,25.88
2023-09-15T17:48:58.314Z,25.77
2023-09-15T17:51:25.739Z,25.66
2023-09-15T17:53:52.520Z,25.57
2023-09-15T17:56:19.169Z,25.42
2023-09-15T17:58:45.719Z,25.28
2023-09-15T18:01:12.329Z,25.11
2023-09-15T18:03:38.824Z,24.94
2023-09-15T18:06:11.160Z,24.75
2023-09-15T18:08:38.340Z,24.60
2023-09-15T18:11:05.015Z,24.47
2023-09-15T18:13:31.588Z,24.31
2023-09-15T18:15:58.140Z,24.19
2023-09-15T18:18:24.751Z,24.08
2023-09-15T18:20:51.265Z,23.98
2023-09-15T18:23:18.476Z,23.88
2023-09-15T18:25:45.144Z,23.76
2023-09-15T18:28:11.654Z,23.65
2023-09-15T18:30:39.144Z,23.54
2023-09-15T18:33:05.769Z,23.41
2023-09-15T18:35:32.275Z,23.33
2023-09-15T18:38:01.549Z,23.24
2023-09-15T18:40:28.120Z,23.19
2023-09-15T18:42:54.951Z,23.16
2023-09-15T18:45:22.299Z,23.13
2023-09-15T18:47:49.427Z,23.13
2023-09-15T18:50:16.065Z,23.13
2023-09-15T18:52:42.518Z,23.13
2023-09-15T18:55:09.198Z,23.11
2023-09-15T18:57:38.734Z,23.10
2023-09-15T19:00:09.353Z,23.06
2023-09-15T19:02:37.842Z,23.00
2023-09-15T19:05:09.105Z,22.92
2023-09-15T19:07:36.440Z,22.83
2023-09-15T19:10:05.233Z,22.72
2023-09-15T19:12:31.913Z,22.62
2023-09-15T19:14:58.988Z,22.52
2023-09-15T19:17:32.786Z,22.45
2023-09-15T19:19:59.668Z,22.37
2023-09-15T19:22:26.204Z,22.33
2023-09-15T19:24:52.823Z,22.28
2023-09-15T19:27:19.452Z,22.27
2023-09-15T19:29:45.982Z,22.25
2023-09-15T19:32:12.522Z,22.23
2023-09-15T19:34:39.060Z,22.22
2023-09-15T19:37:05.528Z,22.19
2023-09-15T19:39:32.050Z,22.17
2023-09-15T19:41:58.555Z,22.10
2023-09-15T19:44:25.099Z,22.03
2023-09-15T19:46:51.632Z,21.97
2023-09-15T19:49:18.215Z,21.94
2023-09-15T19:51:44.923Z,21.90
2023-09-15T19:54:11.561Z,21.87
2023-09-15T19:56:38.062Z,21.85
2023-09-15T22:55:17.645Z,20.82
